Time;durP1;ratioP1;P1;durP2;ratioP2;P2;SDS_P1;SDS_P2;PMS_P1;PMS_P2;Temp;Humidity;BMP_temperature;BMP_pressure;BME280_temperature;BME280_humidity;BME280_pressure;Samples;Min_cycle;Max_cycle;Signal;HPM_P1;HPM_P2
2022/03/13 00:02:16;;;;;;;42.83;16.67;;;1.70;93.80;;;0.09;55.27;102101.31;4942252;28;20081;-76
2022/03/13 00:04:49;;;;;;;41.63;15.07;;;1.70;93.90;;;0.07;55.20;102105.59;4945329;28;20125;-75
2022/03/13 00:07:19;;;;;;;39.33;16.15;;;1.70;94.10;;;-0.03;55.45;102114.00;4950678;28;20057;-75
2022/03/13 00:09:49;;;;;;;38.80;15.75;;;1.60;94.30;;;-0.06;55.29;102103.59;4951336;28;20019;-76
2022/03/13 00:12:26;;;;;;;42.75;16.30;;;1.60;94.70;;;-0.16;56.23;102102.53;4952108;28;20126;-76
2022/03/13 00:14:55;;;;;;;35.63;15.23;;;1.40;94.90;;;-0.31;56.65;102099.66;4947064;28;20044;-75
2022/03/13 00:17:27;;;;;;;35.30;15.65;;;1.30;95.20;;;-0.40;57.65;102095.16;4957810;28;20614;-76
2022/03/13 00:20:00;;;;;;;38.80;16.98;;;1.30;95.60;;;-0.49;58.13;102088.09;4926277;28;20026;-76
2022/03/13 00:22:33;;;;;;;39.30;15.02;;;1.20;95.80;;;-0.55;58.19;102081.91;4952689;28;20030;-76
2022/03/13 00:25:01;;;;;;;41.25;15.13;;;1.10;96.30;;;-0.64;59.07;102083.47;4949752;28;20038;-76
2022/03/13 00:27:31;;;;;;;38.33;15.98;;;1.00;96.50;;;-0.70;59.01;102077.28;4953450;28;20039;-76
2022/03/13 00:29:58;;;;;;;41.58;15.32;;;1.00;96.20;;;-0.69;58.74;102073.84;4936073;28;20054;-77
2022/03/13 00:32:24;;;;;;;40.78;15.35;;;1.00;96.40;;;-0.72;59.02;102077.25;4941868;28;21560;-76
2022/03/13 00:34:50;;;;;;;40.97;16.30;;;1.00;96.50;;;-0.71;58.66;102066.06;4951019;28;20023;-76
2022/03/13 00:37:17;;;;;;;50.35;18.95;;;0.90;96.50;;;-0.73;58.91;102066.88;4951632;28;20106;-76
2022/03/13 00:39:46;;;;;;;35.70;15.68;;;0.90;96.40;;;-0.75;58.79;102069.44;4943341;28;20046;-77
2022/03/13 00:42:17;;;;;;;38.97;15.02;;;0.90;96.40;;;-0.75;58.28;102066.84;4950222;28;20498;-76
2022/03/13 00:44:43;;;;;;;36.15;14.15;;;0.90;96.50;;;-0.75;58.87;102069.44;4948727;28;20352;-77
2022/03/13 00:47:09;;;;;;;38.15;15.63;;;0.90;96.50;;;-0.76;58.94;102062.50;4951735;28;20037;-76
2022/03/13 00:49:38;;;;;;;42.60;16.70;;;0.90;96.70;;;-0.77;58.56;102068.53;4941266;28;20039;-76
2022/03/13 00:52:04;;;;;;;36.97;15.13;;;0.80;96.90;;;-0.79;59.45;102064.16;4964218;28;20097;-76
2022/03/13 00:54:33;;;;;;;43.83;15.75;;;0.80;97.10;;;-0.85;59.78;102067.47;4933697;28;20625;-76
2022/03/13 00:57:00;;;;;;;40.28;16.17;;;0.80;97.10;;;-0.87;59.43;102053.63;4949231;28;20154;-76
2022/03/13 00:59:26;;;;;;;39.15;15.75;;;0.80;97.20;;;-0.90;59.55;102056.16;4942714;28;20038;-76
2022/03/13 01:01:52;;;;;;;34.83;14.25;;;0.70;97.40;;;-0.98;59.81;102052.53;4941788;28;20387;-76
2022/03/13 01:04:18;;;;;;;42.75;15.95;;;0.70;97.50;;;-0.99;59.90;102050.78;4951201;28;20507;-76
2022/03/13 01:06:46;;;;;;;38.72;16.00;;;0.70;97.60;;;-0.97;59.95;102057.75;4953287;28;20058;-76
2022/03/13 01:09:13;;;;;;;46.03;16.30;;;0.70;97.50;;;-0.89;59.83;102060.47;4926539;28;20034;-76
2022/03/13 01:11:39;;;;;;;41.40;16.05;;;0.70;97.60;;;-0.89;59.94;102052.72;4934407;28;20051;-76
2022/03/13 01:14:06;;;;;;;44.10;16.65;;;0.80;97.50;;;-0.80;59.38;102059.81;4933849;28;20111;-76
2022/03/13 01:16:42;;;;;;;41.80;15.50;;;0.80;97.40;;;-0.73;59.32;102052.22;4950485;28;20026;-76
2022/03/13 01:19:08;;;;;;;41.83;16.00;;;0.90;97.20;;;-0.67;58.98;102057.53;4949229;28;20562;-76
2022/03/13 01:21:40;;;;;;;40.83;15.40;;;1.00;97.00;;;-0.61;58.87;102056.78;4927325;28;20062;-76
2022/03/13 01:24:13;;;;;;;41.88;15.57;;;1.00;96.70;;;-0.55;58.54;102062.06;4940678;28;20563;-75
2022/03/13 01:26:40;;;;;;;38.30;16.13;;;1.10;96.40;;;-0.50;57.74;102057.84;4955259;28;20185;-76
2022/03/13 01:29:14;;;;;;;44.78;17.75;;;1.10;96.20;;;-0.39;57.16;102064.97;4937085;28;20135;-76
2022/03/13 01:31:46;;;;;;;38.28;15.80;;;1.20;96.10;;;-0.33;56.82;102068.56;4926795;28;20589;-76
2022/03/13 01:34:38;;;;;;;37.17;15.13;;;1.20;95.90;;;-0.27;56.92;102066.09;4939718;28;20030;-76
2022/03/13 01:37:08;;;;;;;34.78;14.18;;;1.30;95.90;;;-0.24;56.58;102068.75;4950716;28;20035;-76
2022/03/13 01:39:35;;;;;;;31.45;13.10;;;1.30;96.00;;;-0.21;56.84;102068.81;4949506;28;20644;-76
2022/03/13 01:42:01;;;;;;;33.38;12.73;;;1.40;96.20;;;-0.12;57.17;102070.69;4932510;28;20058;-76
2022/03/13 01:44:27;;;;;;;32.47;11.82;;;1.50;96.50;;;-0.06;56.88;102062.19;4923520;28;20055;-76
2022/03/13 01:46:54;;;;;;;46.55;16.02;;;1.60;96.70;;;0.01;57.42;102063.16;4947835;28;20030;-76
2022/03/13 01:49:20;;;;;;;34.65;14.80;;;1.60;96.70;;;0.04;57.77;102063.19;4952249;28;20434;-76
2022/03/13 01:51:46;;;;;;;42.58;16.63;;;1.60;96.80;;;0.05;57.82;102065.84;4941155;28;20035;-76
2022/03/13 01:54:14;;;;;;;42.85;15.82;;;1.60;96.90;;;0.04;58.55;102061.47;4942179;28;20030;-76
2022/03/13 01:56:41;;;;;;;30.70;14.13;;;1.70;97.20;;;0.05;58.53;102063.25;4924396;28;20483;-76
2022/03/13 01:59:10;;;;;;;38.42;14.70;;;1.70;97.10;;;0.06;58.49;102057.19;4949071;28;21179;-77
2022/03/13 02:01:38;;;;;;;41.00;14.98;;;1.70;97.20;;;0.10;58.17;102055.56;4976342;28;20129;-76
2022/03/13 02:04:05;;;;;;;36.25;14.55;;;1.70;97.00;;;0.08;58.15;102054.66;4951003;28;20027;-76
2022/03/13 02:06:31;;;;;;;38.45;15.80;;;1.60;97.40;;;-0.04;59.04;102053.59;4949631;28;20035;-76
2022/03/13 02:08:57;;;;;;;37.80;14.40;;;1.60;97.50;;;-0.05;58.91;102049.25;4933264;28;20465;-76
2022/03/13 02:11:40;;;;;;;38.50;15.25;;;1.60;97.40;;;-0.06;58.86;102055.28;4953706;28;20035;-76
2022/03/13 02:14:10;;;;;;;52.22;15.00;;;1.50;97.70;;;-0.15;59.27;102051.63;4927643;28;20042;-76
2022/03/13 02:16:36;;;;;;;41.38;14.98;;;1.50;97.90;;;-0.16;59.55;102055.94;4949228;28;20035;-76
2022/03/13 02:19:05;;;;;;;38.75;14.50;;;1.40;98.10;;;-0.24;60.01;102049.75;4951314;28;20035;-76
2022/03/13 02:21:37;;;;;;;39.35;15.25;;;1.40;98.40;;;-0.37;60.49;102047.75;4934794;28;20027;-76
2022/03/13 02:24:11;;;;;;;37.88;15.23;;;1.30;98.20;;;-0.40;60.49;102048.59;4948379;28;20027;-76
2022/03/13 02:26:38;;;;;;;43.42;14.43;;;1.30;98.20;;;-0.35;60.15;102049.53;4940788;28;20031;-76
2022/03/13 02:29:09;;;;;;;33.17;13.23;;;1.30;98.20;;;-0.32;60.04;102051.34;4942077;28;20034;-76
2022/03/13 02:31:38;;;;;;;40.75;13.88;;;1.30;98.30;;;-0.36;60.21;102055.56;4962475;28;20055;-75
2022/03/13 02:34:10;;;;;;;41.08;15.30;;;1.30;98.30;;;-0.30;60.27;102042.75;4932316;28;21187;-75
2022/03/13 02:36:42;;;;;;;43.00;14.52;;;1.30;98.30;;;-0.29;60.00;102041.03;4947118;28;20095;-76
2022/03/13 02:39:10;;;;;;;36.58;13.52;;;1.40;98.50;;;-0.33;60.18;102053.03;4946682;28;20057;-76
2022/03/13 02:41:38;;;;;;;31.20;12.38;;;1.40;98.60;;;-0.29;60.28;102041.88;4950776;28;20022;-76
2022/03/13 02:44:06;;;;;;;36.00;14.07;;;1.40;98.60;;;-0.27;60.84;102041.94;4940051;28;20031;-76
2022/03/13 02:46:49;;;;;;;31.00;11.07;;;1.40;98.60;;;-0.30;60.57;102040.16;4949780;28;20621;-75
2022/03/13 02:49:19;;;;;;;35.60;15.40;;;1.40;98.70;;;-0.26;60.55;102041.06;4951462;28;20041;-75
2022/03/13 02:51:48;;;;;;;39.20;15.52;;;1.40;98.70;;;-0.24;60.48;102045.47;4950092;28;20031;-76
2022/03/13 02:54:15;;;;;;;34.15;15.00;;;1.40;98.50;;;-0.26;60.58;102047.13;4932893;28;20038;-75
2022/03/13 02:56:43;;;;;;;35.10;14.45;;;1.40;98.70;;;-0.27;60.66;102049.69;4934422;28;20056;-76
2022/03/13 02:59:10;;;;;;;41.13;16.83;;;1.40;98.70;;;-0.29;60.67;102035.84;4933571;28;20038;-76
2022/03/13 03:01:38;;;;;;;31.30;13.52;;;1.40;98.70;;;-0.33;60.42;102034.91;4949544;28;20039;-76
2022/03/13 03:04:05;;;;;;;37.67;14.77;;;1.40;98.90;;;-0.32;60.58;102038.38;4951856;28;20042;-76
2022/03/13 03:06:33;;;;;;;39.33;14.95;;;1.30;98.80;;;-0.34;60.56;102033.19;4974685;28;20043;-75
2022/03/13 03:09:04;;;;;;;38.67;15.23;;;1.30;98.80;;;-0.37;61.39;102024.47;4947644;28;20080;-75
2022/03/13 03:11:33;;;;;;;39.60;16.27;;;1.20;99.10;;;-0.52;61.63;102027.63;4949501;28;20043;-75
2022/03/13 03:14:02;;;;;;;34.90;14.82;;;1.10;99.40;;;-0.64;61.98;102042.06;4955857;28;20042;-75
2022/03/13 03:16:28;;;;;;;30.88;9.90;;;1.10;99.50;;;-0.75;61.78;102030.63;4986265;28;20414;-75
2022/03/13 03:18:54;;;;;;;38.90;15.07;;;1.00;99.60;;;-0.88;62.04;102028.63;4949890;28;20043;-74
2022/03/13 03:21:20;;;;;;;37.92;15.48;;;0.90;99.90;;;-0.97;62.72;102023.25;4947876;28;20086;-75
2022/03/13 03:23:46;;;;;;;59.67;16.52;;;0.80;99.90;;;-1.05;63.35;102016.19;4956007;28;20117;-75
2022/03/13 03:26:12;;;;;;;37.97;14.43;;;0.70;99.90;;;-1.19;63.28;102024.47;4936999;28;20134;-75
2022/03/13 03:28:38;;;;;;;40.45;14.68;;;0.50;99.90;;;-1.33;63.97;102019.00;4935169;28;20043;-75
2022/03/13 03:31:04;;;;;;;42.75;14.88;;;0.40;99.90;;;-1.47;64.72;102014.41;4956490;28;20169;-75
2022/03/13 03:33:30;;;;;;;39.90;15.70;;;0.30;99.90;;;-1.63;65.21;102006.25;4936229;28;20034;-75
2022/03/13 03:35:56;;;;;;;46.13;15.98;;;0.20;99.90;;;-1.75;65.74;102007.72;4954271;28;20511;-75
2022/03/13 03:38:22;;;;;;;35.22;14.73;;;0.00;99.90;;;-1.88;66.17;102013.38;4937756;28;20066;-74
2022/03/13 03:40:49;;;;;;;39.17;15.23;;;-0.10;99.90;;;-1.98;66.86;102009.69;4950810;28;20158;-74
2022/03/13 03:43:16;;;;;;;39.97;15.70;;;-0.20;99.90;;;-2.12;67.24;102005.88;4951769;28;20193;-74
2022/03/13 03:45:42;;;;;;;39.55;15.70;;;-0.30;99.90;;;-2.23;67.80;102002.16;4946883;28;20039;-74
2022/03/13 03:48:08;;;;;;;38.75;16.17;;;-0.40;99.90;;;-2.28;67.47;101999.47;4951147;28;20101;-74
2022/03/13 03:50:34;;;;;;;36.47;14.93;;;-0.50;99.90;;;-2.31;67.74;101997.69;4951440;28;20026;-74
2022/03/13 03:53:00;;;;;;;38.47;15.30;;;-0.50;99.90;;;-2.33;67.37;102001.06;4952956;28;20466;-74
2022/03/13 03:55:27;;;;;;;38.67;15.43;;;-0.60;99.90;;;-2.39;67.45;101988.84;4952847;28;20065;-75
2022/03/13 03:57:54;;;;;;;37.58;14.32;;;-0.60;99.90;;;-2.37;66.67;101997.50;4935114;28;20050;-74
2022/03/13 04:00:23;;;;;;;37.38;13.63;;;-0.60;99.90;;;-2.33;66.25;101991.59;4953469;28;21827;-74
2022/03/13 04:02:49;;;;;;;39.28;15.43;;;-0.50;99.90;;;-2.25;66.03;101986.63;4951664;28;20574;-74
2022/03/13 04:05:15;;;;;;;37.00;15.48;;;-0.50;99.90;;;-2.17;65.68;101987.69;4950229;28;20039;-74
2022/03/13 04:07:41;;;;;;;35.92;14.45;;;-0.40;99.90;;;-2.10;65.37;101991.31;4953627;28;20035;-74
2022/03/13 04:10:10;;;;;;;38.38;14.15;;;-0.40;99.90;;;-2.02;64.86;101989.81;4958835;28;20126;-75
2022/03/13 04:12:36;;;;;;;34.72;15.20;;;-0.30;99.90;;;-1.95;63.93;101989.13;4961202;28;20031;-74
2022/03/13 04:15:04;;;;;;;41.63;15.45;;;-0.20;99.90;;;-1.84;64.03;101997.13;4953612;28;20118;-74
2022/03/13 04:17:31;;;;;;;36.40;13.88;;;-0.20;99.90;;;-1.76;63.35;101989.59;4937587;28;20027;-73
2022/03/13 04:20:00;;;;;;;37.38;14.60;;;-0.10;99.90;;;-1.69;62.73;101996.63;4951119;28;20031;-74
2022/03/13 04:22:27;;;;;;;43.30;16.20;;;0.20;99.90;;;-1.63;62.75;102003.66;4952426;28;20042;-74
2022/03/13 04:24:53;;;;;;;43.58;15.23;;;0.10;99.90;;;-1.57;61.98;102006.41;4937060;28;20173;-74
2022/03/13 04:27:20;;;;;;;37.05;15.07;;;0.10;99.90;;;-1.55;61.57;102000.44;4950891;28;20037;-73
2022/03/13 04:29:46;;;;;;;37.42;14.40;;;0.20;99.90;;;-1.51;61.28;101999.66;4943031;28;20027;-74
2022/03/13 04:32:12;;;;;;;39.22;14.82;;;0.20;99.90;;;-1.49;60.43;102000.56;4976195;28;20031;-74
2022/03/13 04:34:38;;;;;;;36.55;14.18;;;0.20;99.50;;;-1.43;60.30;101998.97;4953603;28;20038;-74
2022/03/13 04:37:05;;;;;;;44.13;15.60;;;0.30;99.40;;;-1.36;60.31;101995.66;4943213;28;20117;-74
2022/03/13 04:39:35;;;;;;;39.45;15.82;;;0.30;99.20;;;-1.32;59.87;101998.38;4943833;28;20097;-74
2022/03/13 04:42:05;;;;;;;23.00;8.63;;;0.40;99.40;;;-1.29;59.84;101997.56;4926538;28;20428;-73
2022/03/13 04:44:33;;;;;;;47.20;14.65;;;0.40;99.30;;;-1.24;59.59;102007.16;4952051;28;20039;-74
2022/03/13 04:47:01;;;;;;;40.08;15.48;;;0.50;99.30;;;-1.20;59.65;102002.94;4951723;28;20428;-74
2022/03/13 04:49:27;;;;;;;42.35;15.20;;;0.50;99.40;;;-1.19;59.71;102004.66;4951458;28;20027;-74
2022/03/13 04:51:53;;;;;;;37.35;14.23;;;0.50;99.30;;;-1.16;59.41;102012.50;4935616;28;20023;-73
2022/03/13 04:54:19;;;;;;;39.70;14.68;;;0.60;99.40;;;-1.11;59.88;102010.88;4953699;28;20500;-73
2022/03/13 04:56:45;;;;;;;38.83;15.07;;;0.60;99.60;;;-1.08;60.16;102007.50;4956253;28;20027;-74
2022/03/13 04:59:12;;;;;;;40.35;15.07;;;0.60;99.50;;;-1.08;59.98;102012.66;4950952;28;20026;-74
2022/03/13 05:01:39;;;;;;;31.92;13.13;;;0.60;99.50;;;-1.06;59.50;102011.00;4934394;28;20522;-73
2022/03/13 05:04:06;;;;;;;39.80;15.90;;;0.60;99.50;;;-1.03;59.69;102008.50;4935665;28;20023;-74
2022/03/13 05:06:44;;;;;;;36.78;14.63;;;0.70;99.60;;;-0.98;59.73;102014.63;4950398;28;20734;-73
2022/03/13 05:09:11;;;;;;;34.08;14.20;;;0.70;99.60;;;-1.02;59.98;102011.94;4952657;28;20031;-73
2022/03/13 05:11:39;;;;;;;39.40;15.15;;;0.70;99.60;;;-1.01;60.01;102021.47;4951157;28;20027;-74
2022/03/13 05:14:06;;;;;;;34.72;14.93;;;0.70;99.60;;;-0.96;59.94;102025.00;4950938;28;20399;-73
2022/03/13 05:16:32;;;;;;;35.13;12.35;;;0.70;99.50;;;-1.05;60.05;102020.50;4950789;28;20035;-74
2022/03/13 05:18:58;;;;;;;47.28;16.27;;;0.70;99.30;;;-1.00;59.92;102020.59;4951100;28;20023;-73
2022/03/13 05:21:24;;;;;;;40.80;16.77;;;0.70;99.30;;;-1.00;59.96;102016.28;4951112;28;20038;-74
2022/03/13 05:23:50;;;;;;;32.72;11.45;;;0.70;99.20;;;-1.10;59.83;102025.59;4952445;28;20106;-73
2022/03/13 05:26:16;;;;;;;41.42;17.33;;;0.60;99.10;;;-1.07;59.45;102019.59;4949496;28;20057;-73
2022/03/13 05:28:42;;;;;;;39.60;14.40;;;0.60;99.10;;;-1.15;59.53;102031.47;4952125;28;20035;-73
2022/03/13 05:31:08;;;;;;;40.35;15.02;;;0.60;99.10;;;-1.13;59.53;102025.50;4952511;28;20691;-73
2022/03/13 05:33:34;;;;;;;38.70;15.10;;;0.60;99.10;;;-1.16;59.51;102029.75;4952155;28;20665;-74
2022/03/13 05:36:01;;;;;;;39.67;16.10;;;0.60;99.10;;;-1.17;59.49;102025.41;4951879;28;20098;-74
2022/03/13 05:38:27;;;;;;;43.67;17.08;;;0.50;99.20;;;-1.13;59.54;102035.84;4944483;28;20618;-74
2022/03/13 05:40:53;;;;;;;32.25;11.32;;;0.50;99.00;;;-1.19;59.81;102035.69;4951429;28;20050;-73
2022/03/13 05:43:19;;;;;;;41.90;16.38;;;0.50;99.00;;;-1.17;59.29;102034.00;4950936;28;20034;-74
2022/03/13 05:45:45;;;;;;;40.72;16.42;;;0.50;99.00;;;-1.14;59.58;102036.69;4951777;28;20042;-73
2022/03/13 05:48:17;;;;;;;48.58;17.92;;;0.50;98.80;;;-1.12;58.84;102041.91;4952826;28;20431;-73
2022/03/13 05:50:45;;;;;;;39.70;17.55;;;0.50;98.60;;;-1.12;59.01;102036.72;4950610;28;20061;-74
2022/03/13 05:53:12;;;;;;;41.20;17.52;;;0.50;98.80;;;-1.03;58.62;102044.69;4949063;28;20023;-73
2022/03/13 05:55:38;;;;;;;44.80;17.23;;;0.60;98.70;;;-0.98;58.61;102048.22;4950344;28;20027;-73
2022/03/13 05:58:05;;;;;;;45.60;17.85;;;0.60;98.80;;;-0.90;58.84;102051.88;4950723;28;20031;-74
2022/03/13 06:00:32;;;;;;;47.53;16.85;;;0.70;98.90;;;-0.84;58.25;102046.84;4949859;28;20121;-74
2022/03/13 06:03:00;;;;;;;41.88;17.25;;;0.70;99.00;;;-0.58;58.79;102045.59;4949354;28;20034;-74
2022/03/13 06:05:28;;;;;;;41.35;17.33;;;0.90;99.20;;;-0.12;58.00;102051.69;4957508;28;20073;-74
2022/03/13 06:07:55;;;;;;;47.42;17.38;;;1.00;99.20;;;-0.19;57.52;102053.31;4947707;28;20365;-73
2022/03/13 06:10:22;;;;;;;47.72;16.55;;;1.20;99.10;;;0.82;56.56;102051.53;4950030;28;20081;-74
2022/03/13 06:12:48;;;;;;;38.90;16.33;;;1.40;98.50;;;1.78;54.28;102059.69;4951325;28;20039;-74
2022/03/13 06:15:17;;;;;;;35.95;14.50;;;1.80;97.70;;;1.84;51.88;102070.16;4949649;28;20023;-74
2022/03/13 06:17:46;;;;;;;37.80;17.45;;;2.00;96.80;;;2.93;51.21;102077.16;4949712;28;20066;-74
2022/03/13 06:20:14;;;;;;;41.25;16.65;;;2.70;96.30;;;6.32;44.62;102089.31;4949762;28;20427;-74
2022/03/13 06:22:44;;;;;;;36.67;13.40;;;3.40;94.70;;;5.85;42.40;102101.78;4951472;28;20027;-74
2022/03/13 06:25:13;;;;;;;45.67;17.67;;;4.10;93.10;;;8.34;39.15;102116.78;4949682;28;20066;-74
2022/03/13 06:27:41;;;;;;;44.30;17.80;;;4.90;91.70;;;9.84;36.25;102128.97;4958654;28;20046;-73
2022/03/13 06:30:16;;;;;;;38.72;16.73;;;5.40;90.80;;;6.97;37.00;102148.09;4947385;28;20043;-75
2022/03/13 06:32:49;;;;;;;42.83;17.75;;;5.20;90.20;;;4.97;41.61;102142.94;4955852;28;20046;-73
2022/03/13 06:35:17;;;;;;;39.80;17.25;;;4.80;90.60;;;4.32;43.02;102132.47;4950611;28;20027;-75
2022/03/13 06:37:45;;;;;;;49.17;17.83;;;4.90;91.30;;;7.70;41.04;102129.00;4948015;28;20039;-74
2022/03/13 06:40:12;;;;;;;42.55;16.67;;;5.70;91.10;;;12.15;34.26;102141.56;4952747;28;20049;-73
2022/03/13 06:42:40;;;;;;;35.72;13.85;;;6.90;88.60;;;13.70;30.13;102163.66;4947027;28;20031;-74
2022/03/13 06:45:11;;;;;;;39.25;16.88;;;7.90;82.70;;;13.60;28.63;102170.22;4949063;28;20042;-74
2022/03/13 06:47:46;;;;;;;25.48;11.43;;;8.70;80.90;;;14.30;27.50;102179.09;4931497;28;20106;-75
2022/03/13 06:50:15;;;;;;;27.20;11.67;;;9.40;77.90;;;14.03;26.62;102192.44;4948086;28;20026;-74
2022/03/13 06:52:42;;;;;;;41.10;16.38;;;10.00;77.30;;;15.94;25.48;102205.81;4932414;28;20047;-74
2022/03/13 06:55:10;;;;;;;42.47;18.42;;;10.10;74.00;;;15.67;26.14;102213.19;4952686;28;20035;-74
2022/03/13 06:57:36;;;;;;;42.13;18.73;;;10.00;72.30;;;14.76;26.66;102145.44;4950706;28;20026;-75
2022/03/13 07:00:03;;;;;;;36.88;17.40;;;10.30;72.50;;;15.54;26.04;102181.88;4953700;28;20046;-74
2022/03/13 07:02:29;;;;;;;44.08;19.40;;;10.50;72.20;;;15.84;25.74;102196.53;4954472;28;20031;-75
2022/03/13 07:04:55;;;;;;;26.38;9.82;;;10.90;70.90;;;14.20;25.03;102204.19;4944353;28;20933;-74
2022/03/13 07:07:21;;;;;;;38.47;18.40;;;11.00;72.10;;;16.05;25.24;102206.19;4956506;28;20043;-74
2022/03/13 07:09:47;;;;;;;43.83;18.60;;;11.60;71.30;;;17.90;23.67;102221.84;4965020;28;20173;-74
2022/03/13 07:12:14;;;;;;;31.42;12.68;;;11.60;67.30;;;15.31;24.15;102222.72;4981897;28;20641;-75
2022/03/13 07:14:45;;;;;;;45.05;18.58;;;12.30;69.00;;;17.93;23.63;102228.84;4936948;28;20039;-74
2022/03/13 07:17:12;;;;;;;38.80;17.65;;;12.90;66.80;;;18.59;22.72;102255.38;4937293;28;20554;-75
2022/03/13 07:19:40;;;;;;;39.95;17.70;;;12.70;65.80;;;16.83;24.04;102253.97;4952552;28;20055;-75
2022/03/13 07:22:07;;;;;;;37.40;11.68;;;12.50;64.10;;;14.11;23.89;102264.53;4950891;28;20026;-74
2022/03/13 07:24:33;;;;;;;35.72;16.05;;;12.30;65.20;;;15.44;24.78;102256.66;4970638;28;20149;-74
2022/03/13 07:26:59;;;;;;;43.50;19.73;;;12.90;65.90;;;17.44;23.50;102269.53;4953674;28;20639;-74
2022/03/13 07:29:25;;;;;;;38.35;17.38;;;13.40;64.00;;;16.68;23.37;102285.66;4953575;28;20061;-75
2022/03/13 07:31:52;;;;;;;36.72;17.50;;;13.30;63.00;;;16.60;24.13;102286.00;4954004;28;20447;-74
2022/03/13 07:34:18;;;;;;;29.88;11.50;;;13.30;61.30;;;14.88;23.90;102287.25;4959381;28;20138;-75
2022/03/13 07:36:44;;;;;;;37.67;17.13;;;12.80;61.20;;;14.91;25.04;102277.41;4935299;28;20111;-76
2022/03/13 07:39:10;;;;;;;38.53;18.50;;;12.70;62.60;;;15.59;24.94;102269.28;4954183;28;20110;-75
2022/03/13 07:41:36;;;;;;;36.00;16.90;;;13.10;62.50;;;16.30;24.18;102280.31;4953350;28;20141;-75
2022/03/13 07:44:04;;;;;;;32.53;16.05;;;13.10;60.90;;;15.16;24.61;102285.25;4952015;28;20030;-75
2022/03/13 07:46:30;;;;;;;34.38;17.35;;;13.60;60.90;;;16.02;24.28;102279.84;4956803;28;20047;-75
2022/03/13 07:48:56;;;;;;;41.63;18.00;;;14.20;60.10;;;16.52;23.52;102292.59;4976137;28;20781;-76
2022/03/13 07:51:22;;;;;;;36.58;16.80;;;13.90;58.10;;;14.83;24.37;102295.41;4952151;28;20031;-76
2022/03/13 07:53:48;;;;;;;37.05;15.98;;;13.80;58.70;;;14.35;24.96;102293.69;4936562;28;20082;-75
2022/03/13 07:56:15;;;;;;;36.72;17.45;;;14.10;59.30;;;15.88;24.39;102285.78;4954521;28;20702;-75
2022/03/13 07:58:41;;;;;;;19.85;9.93;;;14.40;58.70;;;14.47;24.75;102292.34;4952129;28;20046;-76
2022/03/13 08:01:07;;;;;;;36.40;16.45;;;14.70;59.50;;;16.14;24.45;102288.13;4951404;28;20042;-76
2022/03/13 08:03:36;;;;;;;35.65;18.38;;;15.40;59.60;;;16.65;23.87;102308.84;4951890;28;20047;-76
2022/03/13 08:06:03;;;;;;;33.78;16.70;;;15.10;57.20;;;15.52;24.44;102297.88;4952212;28;20130;-76
2022/03/13 08:08:30;;;;;;;31.33;13.13;;;15.50;56.50;;;14.71;24.23;102310.03;4952416;28;20082;-76
2022/03/13 08:10:59;;;;;;;39.13;18.38;;;15.20;56.80;;;15.30;24.58;102307.69;4953332;28;20110;-76
2022/03/13 08:13:25;;;;;;;29.90;15.85;;;15.60;56.40;;;15.55;24.01;102305.72;4949667;28;20089;-76
2022/03/13 08:15:52;;;;;;;34.85;16.98;;;15.50;56.40;;;15.26;24.84;102312.25;4936221;28;20027;-76
2022/03/13 08:18:18;;;;;;;32.42;15.18;;;15.50;55.20;;;14.83;24.48;102313.09;4952745;28;20042;-76
2022/03/13 08:20:44;;;;;;;32.95;16.75;;;14.90;55.50;;;13.97;25.42;102311.84;4926974;28;20030;-76
2022/03/13 08:23:11;;;;;;;33.92;16.58;;;14.90;55.50;;;14.04;25.21;102316.03;4944157;28;20042;-76
2022/03/13 08:25:37;;;;;;;32.53;15.02;;;15.20;56.20;;;14.17;25.39;102313.78;4951152;28;20049;-76
2022/03/13 08:28:03;;;;;;;34.25;17.33;;;14.70;56.30;;;13.69;26.34;102314.59;4951198;28;20082;-76
2022/03/13 08:30:30;;;;;;;35.22;16.20;;;15.00;56.10;;;14.13;25.85;102313.03;4945468;28;20025;-76
2022/03/13 08:32:56;;;;;;;34.85;16.10;;;15.20;55.90;;;13.81;25.75;102308.03;4974295;28;20182;-76
2022/03/13 08:35:22;;;;;;;36.50;16.00;;;15.20;55.00;;;13.86;25.47;102311.38;4945344;28;20026;-77
2022/03/13 08:37:49;;;;;;;32.30;15.13;;;14.90;54.20;;;13.33;25.27;102313.13;4951264;28;20050;-76
2022/03/13 08:40:15;;;;;;;23.77;11.20;;;15.00;54.40;;;12.84;25.28;102313.81;4953225;28;20134;-76
2022/03/13 08:42:41;;;;;;;33.67;16.05;;;15.00;54.70;;;13.28;25.68;102314.16;4960837;28;20039;-75
2022/03/13 08:45:08;;;;;;;31.17;14.77;;;15.00;55.80;;;13.71;26.25;102316.28;4959087;28;20703;-76
2022/03/13 08:47:34;;;;;;;32.38;15.70;;;15.50;56.50;;;14.30;25.84;102320.38;4953104;28;20054;-75
2022/03/13 08:50:00;;;;;;;32.03;14.93;;;15.70;54.00;;;13.89;24.77;102316.56;4953750;28;20053;-76
2022/03/13 08:52:26;;;;;;;24.15;12.48;;;15.30;53.80;;;12.98;25.62;102329.22;4951338;28;20551;-76
2022/03/13 08:54:52;;;;;;;26.40;12.23;;;14.60;53.60;;;12.27;26.38;102315.50;4951085;28;20689;-75
2022/03/13 08:57:18;;;;;;;27.40;12.98;;;14.50;53.80;;;12.63;26.10;102321.47;4950493;28;20015;-75
2022/03/13 08:59:44;;;;;;;26.30;12.43;;;14.50;55.40;;;12.51;26.58;102320.06;4976721;28;20026;-75
2022/03/13 09:02:11;;;;;;;29.52;14.88;;;14.50;56.40;;;13.25;26.11;102320.41;4952162;28;20117;-75
2022/03/13 09:04:37;;;;;;;32.03;14.27;;;14.20;55.60;;;12.50;26.25;102320.97;4952257;28;20092;-75
2022/03/13 09:07:03;;;;;;;30.48;15.55;;;14.00;58.00;;;12.77;27.55;102318.41;4934331;28;20024;-75
2022/03/13 09:09:29;;;;;;;25.05;11.93;;;13.70;58.90;;;11.76;28.57;102318.59;4949443;28;20089;-76
2022/03/13 09:11:56;;;;;;;30.52;14.85;;;13.50;59.30;;;11.88;28.67;102307.78;4952685;28;20030;-75
2022/03/13 09:14:23;;;;;;;27.67;14.05;;;13.20;58.30;;;11.61;28.44;102311.94;4949063;28;20419;-75
2022/03/13 09:16:49;;;;;;;29.35;14.73;;;12.80;59.00;;;11.17;29.30;102308.66;4950200;28;20042;-75
2022/03/13 09:19:18;;;;;;;29.58;12.90;;;12.90;60.20;;;11.81;28.29;102309.63;4954003;28;20038;-75
2022/03/13 09:21:44;;;;;;;22.65;11.45;;;12.20;56.90;;;10.42;27.97;102308.53;4931854;28;20027;-75
2022/03/13 09:24:17;;;;;;;24.67;12.57;;;12.10;57.70;;;10.83;27.82;102309.41;4972606;28;20034;-75
2022/03/13 09:26:45;;;;;;;24.02;11.40;;;11.70;57.70;;;9.99;28.16;102318.13;4951845;28;20038;-76
2022/03/13 09:29:12;;;;;;;26.77;13.82;;;11.40;58.00;;;10.07;28.54;102316.22;4950788;28;20134;-75
2022/03/13 09:31:39;;;;;;;26.15;13.00;;;11.30;59.30;;;10.14;29.40;102316.97;4951958;28;20026;-74
2022/03/13 09:34:08;;;;;;;24.33;9.60;;;10.90;59.20;;;9.44;29.17;102314.72;4951369;28;20495;-76
2022/03/13 09:36:37;;;;;;;28.75;12.55;;;10.70;59.20;;;9.26;29.87;102295.72;4947295;28;20046;-74
2022/03/13 09:39:09;;;;;;;26.77;12.80;;;10.40;60.10;;;9.09;30.34;102296.84;4949659;28;20387;-75
2022/03/13 09:41:38;;;;;;;28.77;13.65;;;10.10;61.20;;;8.55;30.84;102291.50;4951541;28;20102;-75
2022/03/13 09:44:07;;;;;;;29.70;12.35;;;9.90;62.40;;;8.33;31.83;102288.25;4949225;28;20073;-75
2022/03/13 09:46:38;;;;;;;28.52;13.18;;;9.70;61.50;;;8.10;31.34;102285.88;4949950;28;20114;-75
2022/03/13 09:49:10;;;;;;;32.78;11.27;;;9.70;62.80;;;8.20;31.86;102282.28;4951265;28;20035;-76
2022/03/13 09:51:39;;;;;;;28.17;13.75;;;9.70;62.90;;;8.38;31.30;102287.31;4932836;28;20042;-75
2022/03/13 09:54:11;;;;;;;25.98;11.55;;;9.70;62.90;;;8.48;31.85;102282.84;4948602;28;20054;-75
2022/03/13 09:56:43;;;;;;;21.45;10.80;;;9.80;62.20;;;8.58;30.93;102280.97;4948906;28;20471;-75
2022/03/13 09:59:11;;;;;;;22.63;11.25;;;9.90;62.10;;;8.66;30.83;102279.13;4947942;28;20039;-75
2022/03/13 10:01:43;;;;;;;26.23;11.27;;;10.00;61.50;;;8.65;30.68;102281.75;4953111;28;20034;-75
2022/03/13 10:04:10;;;;;;;22.77;10.20;;;9.90;61.90;;;8.53;30.89;102280.16;4946663;28;20502;-75
2022/03/13 10:07:06;;;;;;;18.38;9.23;;;10.00;62.50;;;8.48;30.79;102276.72;4949902;28;20035;-75
2022/03/13 10:09:35;;;;;;;33.17;11.30;;;10.00;62.50;;;8.90;31.27;102267.38;4950159;28;20042;-75